Flugplatz Korbach

Für EDGK sind keine METAR/TAF Berichte vorhanden.
Es werden die Flugwettermeldungen vom Flugplatz Fritzlar Airport in 32 km Entfernung angezeigt.

Bericht für ETHF

vom 23.02. um 22:20 UTC

Wind 13 kt aus 300° in Böen 23 kt

Sichtweite 10 km oder mehr

aufgebrochene Bewölkung in 3100 ft

Temperatur 6.0°C

Taupunkt -1.0°C

Luftfeuchtigkeit 61%

Luftdruck 1020 hPa

ETHF 232220Z 30013G23KT 9999 BKN031 06/M01 Q1020 BLU
Keine Prognose (TAF) verfügbar.
Impressum